Information Last Ob Photographs Calibration Meteogram Network Table Neighbors Monthly Summaries Observation History Wind Roses Custom Wind Roses Data Calendar Satellite Cloud Product Download

Most Recent Observation

This application displays the last observation received by the IEM from this site. The time stamp is in America/Chicago timezone.

Observation Local Time19 Apr 2024, 3:55 PM
Observation UTC Time2024-04-19T20:55:00Z
Air Temp [F]57.2
Maximum Air Temperature [F]59
Minimum Air Temperature [F]33.8
Dew Point [F]23
Wind DirectionNW (310 degrees)
Wind Speed [knots]10
Altimeter [inches]30.24
Raw Observation/ProductKICL 192055Z AUTO 31010G18KT 10SM FEW120 14/M05 A3024 RMK AO2
Cloud Layer 1: FEW (12000 feet)

This data was provided by a JSON(P) webservice. You can find more JSON services.